createdAt,value
2022-11-05T00:02:01.498Z,19.70
2022-11-05T00:07:26.181Z,20.43
2022-11-05T00:12:47.973Z,22.93
2022-11-05T00:17:50.746Z,26.93
2022-11-05T00:23:18.734Z,22.73
2022-11-05T00:28:22.863Z,28.10
2022-11-05T00:33:25.609Z,27.57
2022-11-05T00:38:28.361Z,28.00
2022-11-05T00:43:49.809Z,26.83
2022-11-05T00:49:10.117Z,26.00
2022-11-05T00:54:12.875Z,27.73
2022-11-05T00:59:16.983Z,28.13
2022-11-05T01:04:19.737Z,32.63
2022-11-05T01:09:22.515Z,26.30
2022-11-05T01:14:26.582Z,28.07
2022-11-05T01:19:29.370Z,32.77
2022-11-05T01:24:32.245Z,32.37
2022-11-05T01:29:36.331Z,35.30
2022-11-05T01:34:39.093Z,33.87
2022-11-05T01:39:41.886Z,33.17
2022-11-05T01:44:58.813Z,30.80
2022-11-05T01:50:04.689Z,34.80
2022-11-05T01:55:09.716Z,31.70
2022-11-05T02:00:15.901Z,32.03
2022-11-05T02:05:18.882Z,30.93
2022-11-05T02:10:23.204Z,27.70
2022-11-05T02:15:36.190Z,28.23
2022-11-05T02:20:52.034Z,23.27
2022-11-05T02:26:31.754Z,22.03
2022-11-05T02:31:41.635Z,24.83
2022-11-05T02:36:51.136Z,28.00
2022-11-05T02:42:05.545Z,24.93
2022-11-05T02:47:19.277Z,29.07
2022-11-05T02:52:26.280Z,27.17
2022-11-05T02:57:30.797Z,28.23
2022-11-05T03:02:35.332Z,30.30
2022-11-05T03:07:48.648Z,27.60
2022-11-05T03:13:04.830Z,26.93
2022-11-05T03:18:15.847Z,28.97
2022-11-05T03:23:25.825Z,27.73
2022-11-05T03:28:32.265Z,28.87
2022-11-05T03:33:38.530Z,25.47
2022-11-05T03:38:45.395Z,23.90
2022-11-05T03:43:52.914Z,25.40
2022-11-05T03:49:00.180Z,27.20
2022-11-05T03:54:05.688Z,29.77
2022-11-05T03:59:11.051Z,29.97
2022-11-05T04:04:15.180Z,34.30
2022-11-05T04:09:35.351Z,32.47
2022-11-05T04:14:39.384Z,33.43
2022-11-05T04:20:02.287Z,39.40
2022-11-05T04:25:05.589Z,42.27
2022-11-05T04:30:21.690Z,39.83
2022-11-05T04:35:26.437Z,39.63
2022-11-05T04:40:29.699Z,38.70
2022-11-05T04:45:35.241Z,39.23
2022-11-05T04:50:39.605Z,42.47
2022-11-05T04:55:42.375Z,41.53
2022-11-05T05:00:45.184Z,36.40
2022-11-05T05:05:52.880Z,40.63
2022-11-05T05:10:56.703Z,42.30
2022-11-05T05:15:59.673Z,42.53
2022-11-05T05:21:21.819Z,41.20
2022-11-05T05:26:24.704Z,33.67
2022-11-05T05:31:27.585Z,36.07
2022-11-05T05:36:31.932Z,37.80
2022-11-05T05:41:34.898Z,43.03
2022-11-05T05:46:37.755Z,35.60
2022-11-05T05:51:42.116Z,32.33
2022-11-05T05:56:45.067Z,37.03
2022-11-05T06:01:47.993Z,33.50
2022-11-05T06:06:52.201Z,38.10
2022-11-05T06:11:54.974Z,35.87
2022-11-05T06:16:57.747Z,35.83
2022-11-05T06:22:01.817Z,38.93
2022-11-05T06:27:04.752Z,33.67
2022-11-05T06:32:07.493Z,35.20
2022-11-05T06:37:12.435Z,33.43
2022-11-05T06:42:19.247Z,33.47
2022-11-05T06:47:22.302Z,35.70
2022-11-05T06:52:27.249Z,33.53
2022-11-05T06:57:30.079Z,32.13
2022-11-05T07:02:33.013Z,28.77
2022-11-05T07:07:37.110Z,27.73
2022-11-05T07:12:39.936Z,28.13
2022-11-05T07:17:42.725Z,27.23
2022-11-05T07:22:46.820Z,28.10
2022-11-05T07:27:49.551Z,29.27
2022-11-05T07:32:52.321Z,25.97
2022-11-05T07:37:57.114Z,26.43
2022-11-05T07:43:01.186Z,24.80
2022-11-05T07:48:05.369Z,21.83
2022-11-05T07:53:13.000Z,27.33
2022-11-05T07:58:16.128Z,24.27
2022-11-05T08:03:20.247Z,27.27
2022-11-05T08:08:24.713Z,21.70
2022-11-05T08:13:27.470Z,25.57
2022-11-05T08:18:32.302Z,25.83
2022-11-05T08:23:36.745Z,25.20
2022-11-05T08:28:39.515Z,21.60
2022-11-05T08:33:42.311Z,17.73
2022-11-05T08:38:46.401Z,18.47
2022-11-05T08:43:49.202Z,21.40
2022-11-05T08:48:54.211Z,21.33
2022-11-05T08:53:58.396Z,19.00
2022-11-05T08:59:01.819Z,31.10
2022-11-05T09:04:04.968Z,24.67
2022-11-05T09:09:09.087Z,22.73
2022-11-05T09:14:11.849Z,20.47
2022-11-05T09:19:14.624Z,21.07
2022-11-05T09:24:18.817Z,23.50
2022-11-05T09:29:21.714Z,23.20
2022-11-05T09:34:24.519Z,22.23
2022-11-05T09:39:28.769Z,21.17
2022-11-05T09:44:41.810Z,23.50
2022-11-05T09:49:50.024Z,20.67
2022-11-05T09:54:55.510Z,22.87
2022-11-05T10:00:02.468Z,14.70
2022-11-05T10:05:10.320Z,12.02
2022-11-05T10:10:26.218Z,13.98
2022-11-05T10:15:32.256Z,10.85
2022-11-05T10:20:37.358Z,13.23
2022-11-05T10:25:44.622Z,15.25
2022-11-05T10:30:49.621Z,8.95
2022-11-05T10:35:56.769Z,16.30
2022-11-05T10:41:15.283Z,10.35
2022-11-05T10:46:32.453Z,14.00
2022-11-05T10:51:35.792Z,13.93
2022-11-05T10:56:41.499Z,11.80
2022-11-05T11:01:44.703Z,10.93
2022-11-05T11:06:52.451Z,13.60
2022-11-05T11:12:03.610Z,10.45
2022-11-05T11:17:28.239Z,10.85
2022-11-05T11:22:31.114Z,9.00
2022-11-05T11:27:35.762Z,13.52
2022-11-05T11:32:40.658Z,13.50
2022-11-05T11:37:43.463Z,12.45
2022-11-05T11:42:50.208Z,12.93
2022-11-05T11:47:53.129Z,9.38
2022-11-05T11:52:55.980Z,8.25
2022-11-05T11:58:13.303Z,6.20
2022-11-05T12:03:25.306Z,10.73
2022-11-05T12:09:01.805Z,13.93
2022-11-05T12:14:24.550Z,9.40
2022-11-05T12:19:43.422Z,8.63
2022-11-05T12:25:12.163Z,9.65
2022-11-05T12:30:18.808Z,7.82
2022-11-05T12:35:35.933Z,9.05
2022-11-05T12:40:47.783Z,10.15
2022-11-05T12:46:01.191Z,6.60
2022-11-05T12:51:15.783Z,10.05
2022-11-05T12:56:26.202Z,13.55
2022-11-05T13:01:36.374Z,12.02
2022-11-05T13:06:41.870Z,14.43
2022-11-05T13:11:50.486Z,12.77
2022-11-05T13:16:58.084Z,11.10
2022-11-05T13:22:15.400Z,10.02
2022-11-05T13:27:39.571Z,7.57
2022-11-05T13:32:48.241Z,13.85
2022-11-05T13:38:13.411Z,10.38
2022-11-05T13:43:28.567Z,13.15
2022-11-05T13:49:02.401Z,5.35
2022-11-05T13:54:48.285Z,6.07
2022-11-05T14:00:02.587Z,10.10
2022-11-05T14:05:08.430Z,15.10
2022-11-05T14:10:20.944Z,9.52
2022-11-05T14:15:26.604Z,11.88
2022-11-05T14:20:59.407Z,12.27
2022-11-05T14:26:15.715Z,13.27
2022-11-05T14:37:29.029Z,9.18
2022-11-05T14:42:32.388Z,9.77
2022-11-05T14:47:39.697Z,12.43
2022-11-05T14:52:52.932Z,10.98
2022-11-05T14:58:21.533Z,9.77
2022-11-05T15:03:33.942Z,10.73
2022-11-05T15:08:52.781Z,10.15
2022-11-05T15:14:04.433Z,10.20
2022-11-05T15:19:17.698Z,9.30
2022-11-05T15:24:22.633Z,11.77
2022-11-05T15:29:29.101Z,7.43
2022-11-05T15:34:33.378Z,9.27
2022-11-05T15:39:43.376Z,8.20
2022-11-05T15:44:47.975Z,13.03
2022-11-05T15:49:54.103Z,6.87
2022-11-05T15:55:19.671Z,12.27
2022-11-05T16:00:24.186Z,15.60
2022-11-05T16:05:29.018Z,10.67
2022-11-05T16:10:35.479Z,13.97
2022-11-05T16:15:38.331Z,18.67
2022-11-05T16:20:41.301Z,13.67
2022-11-05T16:25:47.164Z,14.43
2022-11-05T16:30:57.995Z,15.03
2022-11-05T16:36:00.855Z,16.50
2022-11-05T16:41:05.079Z,16.93
2022-11-05T16:46:11.421Z,18.77
2022-11-05T16:51:14.554Z,11.87
2022-11-05T16:56:22.114Z,11.57
2022-11-05T17:01:25.495Z,17.20
2022-11-05T17:07:30.641Z,19.43
2022-11-05T17:13:10.349Z,20.13
2022-11-05T17:18:26.652Z,25.23
2022-11-05T17:23:29.938Z,17.83
2022-11-05T17:28:34.560Z,20.57
2022-11-05T17:33:38.068Z,19.63
2022-11-05T17:38:41.061Z,22.47
2022-11-05T17:43:45.765Z,23.63
2022-11-05T17:48:49.051Z,20.77
2022-11-05T17:53:53.333Z,16.23
2022-11-05T17:58:57.526Z,22.97
2022-11-05T18:04:07.151Z,22.37
2022-11-05T18:09:13.846Z,20.90
2022-11-05T18:14:23.693Z,22.83
2022-11-05T18:19:27.636Z,23.00
2022-11-05T18:24:30.644Z,27.30
2022-11-05T18:29:34.791Z,31.57
2022-11-05T18:34:37.577Z,26.97
2022-11-05T18:39:40.370Z,18.27
2022-11-05T18:44:44.601Z,25.93
2022-11-05T18:49:47.382Z,28.83
2022-11-05T18:54:50.098Z,28.30
2022-11-05T18:59:54.355Z,31.43
2022-11-05T19:10:20.061Z,27.17
2022-11-05T19:15:24.237Z,25.37
2022-11-05T19:20:28.088Z,29.97
2022-11-05T19:25:30.966Z,24.57
2022-11-05T19:30:35.157Z,28.47
2022-11-05T19:35:41.556Z,31.20
2022-11-05T19:40:44.431Z,23.20
2022-11-05T19:45:48.545Z,27.53
2022-11-05T19:50:51.285Z,26.80
2022-11-05T19:55:54.183Z,26.93
2022-11-05T20:00:58.431Z,28.70
2022-11-05T20:06:10.810Z,26.63
2022-11-05T20:11:14.095Z,25.00
2022-11-05T20:16:26.373Z,22.40
2022-11-05T20:21:32.814Z,25.53
2022-11-05T20:26:36.210Z,25.87
2022-11-05T20:31:43.698Z,23.80
2022-11-05T20:36:48.383Z,19.23
2022-11-05T20:41:52.762Z,19.83
2022-11-05T20:46:56.989Z,20.03
2022-11-05T20:51:59.788Z,19.73
2022-11-05T20:57:02.751Z,19.70
2022-11-05T21:02:07.405Z,19.60
2022-11-05T21:07:10.493Z,18.23
2022-11-05T21:12:13.650Z,21.17
2022-11-05T21:17:18.080Z,18.53
2022-11-05T21:22:20.964Z,15.23
2022-11-05T21:27:23.950Z,18.00
2022-11-05T21:32:28.104Z,13.60
2022-11-05T21:37:30.896Z,15.50
2022-11-05T21:42:33.640Z,15.27
2022-11-05T21:47:37.780Z,14.83
2022-11-05T21:52:58.133Z,22.83
2022-11-05T21:58:25.801Z,18.33
2022-11-05T22:03:30.180Z,16.90
2022-11-05T22:08:32.978Z,15.53
2022-11-05T22:13:35.927Z,18.67
2022-11-05T22:18:40.042Z,15.03
2022-11-05T22:23:42.855Z,26.13
2022-11-05T22:28:45.686Z,22.30
2022-11-05T22:33:50.122Z,26.00
2022-11-05T22:38:52.861Z,17.87
2022-11-05T22:43:55.737Z,30.37
2022-11-05T22:49:00.673Z,13.33
2022-11-05T22:54:04.284Z,14.73
2022-11-05T22:59:09.192Z,15.87
2022-11-05T23:04:14.753Z,12.33
2022-11-05T23:09:38.793Z,15.07
2022-11-05T23:14:42.349Z,11.77
2022-11-05T23:20:04.490Z,11.37
2022-11-05T23:25:10.728Z,10.73
2022-11-05T23:30:16.787Z,9.30
2022-11-05T23:35:41.641Z,13.77
2022-11-05T23:40:58.442Z,12.00
2022-11-05T23:46:30.190Z,12.13
2022-11-05T23:51:34.260Z,9.10
2022-11-05T23:56:37.124Z,12.77
